Seznam meteostanic stanic Slunecno.cz
Reklama

Seznam meteostanic a jejich METAR

Vyhledat místa podle abecedy:
A B C D E F G H I J K L M N O P Q R S T U V W X Y Z

Filtrovat:

ID stanice:
a/nebo
Název místa (fulltext):
 
Místo (ID)Naposledy načteno 
Brno - Tuřany (Brno/Tu) 22.04.2019 08:00 UTC Zobrazit data
Místo: Brno - Tuřany
Teplota: 15 °C (pocitová: 11.5 °C)
Vítr: 6 m/s z(e) 90°
Počasí: skorojasno
Dohlednost: 40 km
Zákl. oblačnosti: 1/8 6900 m
Vlhkost: 42%
Červená - Opava (Cervena/uL) 22.04.2019 08:00 UTC Zobrazit data
Místo: Červená - Opava
Teplota: 7 °C (pocitová: -0.3 °C)
Vítr: 7 m/s z(e) 30°
Počasí: skorojasno
Dohlednost: 17 km
Zákl. oblačnosti: 2/8 420 m
Vlhkost: 66%
České Budějovice (C.Budej/po) 22.04.2019 08:00 UTC Zobrazit data
Místo: České Budějovice
Teplota: 14 °C (pocitová: 12.9 °C)
Vítr: 1 m/s z(e) 50°
Počasí:
Dohlednost: 17 km
Zákl. oblačnosti: N/A
Vlhkost: 48%
Cheb (Cheb) 22.04.2019 08:00 UTC Zobrazit data
Místo: Cheb
Teplota: 16 °C (pocitová: 14 °C)
Vítr: 3 m/s z(e) 50°
Počasí: skorojasno
Dohlednost: 45 km
Zákl. oblačnosti: 1/8 9000 m
Vlhkost: 45%
Chotusice - Čáslav (Caslav) 22.04.2019 08:00 UTC Zobrazit data
Místo: Chotusice - Čáslav
Teplota: 14 °C (pocitová: 11.3 °C)
Vítr: 3 m/s z(e) 60°
Počasí: slunečno
Dohlednost: 30 km
Zákl. oblačnosti: N/A
Vlhkost: 44%
Churáňov (Churanov) 22.04.2019 08:00 UTC Zobrazit data
Místo: Churáňov
Teplota: 12 °C (pocitová: 8.7 °C)
Vítr: 3 m/s z(e) 60°
Počasí: skorojasno
Dohlednost: 45 km
Zákl. oblačnosti: 2/8 9000 m
Vlhkost: 41%
Doksany - Litoměřice (Doksany) 22.04.2019 08:00 UTC Zobrazit data
Místo: Doksany - Litoměřice
Teplota: 16 °C (pocitová: 14.6 °C)
Vítr: 2 m/s z(e) 0°
Počasí: slunečno
Dohlednost: 60 km
Zákl. oblačnosti: N/A
Vlhkost: 39%
Dukovany (Dukovany) 22.04.2019 08:00 UTC Zobrazit data
Místo: Dukovany
Teplota: 15 °C (pocitová: 12.2 °C)
Vítr: 4 m/s z(e) 80°
Počasí: slunečno
Dohlednost: 30 km
Zákl. oblačnosti: N/A
Vlhkost: 42%
Holešov (Holesov) 22.04.2019 08:00 UTC Zobrazit data
Místo: Holešov
Teplota: 12 °C (pocitová: 6.5 °C)
Vítr: 9 m/s z(e) 30°
Počasí: skorojasno
Dohlednost: 40 km
Zákl. oblačnosti: 1/8 2700 m
Vlhkost: 51%
Kadaň - Tušimice (Tusimice) 22.04.2019 08:00 UTC Zobrazit data
Místo: Kadaň - Tušimice
Teplota: 16 °C (pocitová: 14 °C)
Vítr: 3 m/s z(e) 110°
Počasí: slunečno
Dohlednost: 35 km
Zákl. oblačnosti: N/A
Vlhkost: 48%
Karlovy Vary (K.Vary) 22.04.2019 08:00 UTC Zobrazit data
Místo: Karlovy Vary
Teplota: 14 °C (pocitová: 10.1 °C)
Vítr: 6 m/s z(e) 80°
Počasí: skorojasno
Dohlednost: 50 km
Zákl. oblačnosti: 1/8 6000 m
Vlhkost: 39%
Kocelovice (Kocelovice) 22.04.2019 08:00 UTC Zobrazit data
Místo: Kocelovice
Teplota: 13 °C (pocitová: 9.4 °C)
Vítr: 4 m/s z(e) 50°
Počasí: skorojasno
Dohlednost: 70 km
Zákl. oblačnosti: 1/8 9300 m
Vlhkost: 55%
Kopisty (Kopisty) 22.04.2019 06:00 UTC Zobrazit data
Místo: Kopisty
Teplota: 10 °C (pocitová: 19.3 °C)
Vítr: 0 m/s z(e) 0°
Počasí: skorojasno
Dohlednost: 19 km
Zákl. oblačnosti: 1/8 7800 m
Vlhkost: 67%
Kostelní Myslová (K.Myslova) 22.04.2019 08:00 UTC Zobrazit data
Místo: Kostelní Myslová
Teplota: 14 °C (pocitová: 10.8 °C)
Vítr: 4 m/s z(e) 100°
Počasí: skorojasno
Dohlednost: 35 km
Zákl. oblačnosti: 1/8 7800 m
Vlhkost: 44%
Křešín - Kramolín (Kramolin) 22.04.2019 08:00 UTC Zobrazit data
Místo: Křešín - Kramolín
Teplota: 15 °C (pocitová: 12.7 °C)
Vítr: 3 m/s z(e) 70°
Počasí: slunečno
Dohlednost: 35 km
Zákl. oblačnosti: N/A
Vlhkost: 42%
Kuchařovice - Znojmo (Kucharovic) 22.04.2019 08:00 UTC Zobrazit data
Místo: Kuchařovice - Znojmo
Teplota: 15 °C (pocitová: 12.7 °C)
Vítr: 3 m/s z(e) 70°
Počasí: skorojasno
Dohlednost: 40 km
Zákl. oblačnosti: 1/8 6900 m
Vlhkost: 39%
Liberec (Liberec) 22.04.2019 08:00 UTC Zobrazit data
Místo: Liberec
Teplota: 12 °C (pocitová: 9.5 °C)
Vítr: 2 m/s z(e) 250°
Počasí: slunečno
Dohlednost: 35 km
Zákl. oblačnosti: N/A
Vlhkost: 51%
Luká (Luka) 22.04.2019 08:00 UTC Zobrazit data
Místo: Luká
Teplota: 13 °C (pocitová: 9.4 °C)
Vítr: 4 m/s z(e) 50°
Počasí: slunečno
Dohlednost: 45 km
Zákl. oblačnosti: N/A
Vlhkost: 41%
Lysá Hora (Lysa Hora) 22.04.2019 08:00 UTC Zobrazit data
Místo: Lysá Hora
Teplota: 5 °C (pocitová: 0.5 °C)
Vítr: 2 m/s z(e) 0°
Počasí: oblačno
Dohlednost: 45 km
Zákl. oblačnosti: 4/8 900 m
Vlhkost: 66%
Milešovka (Milesovka) 22.04.2019 08:00 UTC Zobrazit data
Místo: Milešovka
Teplota: 13 °C (pocitová: 9.4 °C)
Vítr: 4 m/s z(e) 90°
Počasí: skorojasno
Dohlednost: 60 km
Zákl. oblačnosti: 1/8 8100 m
Vlhkost: 41%
Mošnov (Ostrava/Mo) 22.04.2019 08:00 UTC Zobrazit data
Místo: Mošnov
Teplota: 11 °C (pocitová: 6.7 °C)
Vítr: 4 m/s z(e) 30°
Počasí: oblačno
Dohlednost: 12 km
Zákl. oblačnosti: 2/8 690 m
Vlhkost: 67%
Náměšť nad Oslavou (Namest n/O) 22.04.2019 08:00 UTC Zobrazit data
Místo: Náměšť nad Oslavou
Teplota: 15 °C (pocitová: 12.2 °C)
Vítr: 4 m/s z(e) 50°
Počasí: slunečno
Dohlednost: 25 km
Zákl. oblačnosti: N/A
Vlhkost: 36%
Pardubice (Pardubice) 22.04.2019 08:00 UTC Zobrazit data
Místo: Pardubice
Teplota: 15 °C (pocitová: 12.7 °C)
Vítr: 3 m/s z(e) 50°
Počasí: slunečno
Dohlednost: 20 km
Zákl. oblačnosti: N/A
Vlhkost: 39%
Pec pod Sněžkou (Pec p.Snez) 22.04.2019 08:00 UTC Zobrazit data
Místo: Pec pod Sněžkou
Teplota: 8 °C (pocitová: 2 °C)
Vítr: 5 m/s z(e) 60°
Počasí: slunečno
Dohlednost: 30 km
Zákl. oblačnosti: N/A
Vlhkost: 50%
Plzeň město - Mikulka (Plzen/Miku) 22.04.2019 08:00 UTC Zobrazit data
Místo: Plzeň město - Mikulka
Teplota: 15 °C (pocitová: 12.7 °C)
Vítr: 3 m/s z(e) 20°
Počasí: skorojasno
Dohlednost: 75 km
Zákl. oblačnosti: 1/8 6900 m
Vlhkost: 48%
Polom (Polom) 22.04.2019 08:00 UTC Zobrazit data
Místo: Polom
Teplota: 7 °C (pocitová: 1.2 °C)
Vítr: 4 m/s z(e) 50°
Počasí: slunečno
Dohlednost: 40 km
Zákl. oblačnosti: N/A
Vlhkost: 61%
Praha - Karlov (Praha/Kar) 22.04.2019 08:00 UTC Zobrazit data
Místo: Praha - Karlov
Teplota: 16 °C (pocitová: 13.5 °C)
Vítr: 4 m/s z(e) 90°
Počasí: oblačno
Dohlednost: 45 km
Zákl. oblačnosti: 3/8 9300 m
Vlhkost: 34%
Praha - Kbely (Praha/Kbe) 22.04.2019 08:00 UTC Zobrazit data
Místo: Praha - Kbely
Teplota: 14 °C (pocitová: 10.4 °C)
Vítr: 5 m/s z(e) 70°
Počasí: slunečno
Dohlednost: 30 km
Zákl. oblačnosti: N/A
Vlhkost: 41%
Praha - Libuš (Praha/Lib) 22.04.2019 08:00 UTC Zobrazit data
Místo: Praha - Libuš
Teplota: 16 °C (pocitová: 14 °C)
Vítr: 3 m/s z(e) 80°
Počasí: slunečno
Dohlednost: 35 km
Zákl. oblačnosti: N/A
Vlhkost: 36%
Praha - Ruzyně (Praha/Ru) 22.04.2019 08:00 UTC Zobrazit data
Místo: Praha - Ruzyně
Teplota: 15 °C (pocitová: 11.5 °C)
Vítr: 6 m/s z(e) 90°
Počasí: skorojasno
Dohlednost: 50 km
Zákl. oblačnosti: 1/8 9000 m
Vlhkost: 39%
Přibyslav (Pribyslav) 22.04.2019 08:00 UTC Zobrazit data
Místo: Přibyslav
Teplota: 15 °C (pocitová: 12.7 °C)
Vítr: 3 m/s z(e) 60°
Počasí:
Dohlednost: 35 km
Zákl. oblačnosti: N/A
Vlhkost: 36%
Přimda (Primda) 22.04.2019 08:00 UTC Zobrazit data
Místo: Přimda
Teplota: 13 °C (pocitová: 9 °C)
Vítr: 5 m/s z(e) 80°
Počasí: skorojasno
Dohlednost: 65 km
Zákl. oblačnosti: 1/8 9000 m
Vlhkost: 47%
Šerák (Serak) 22.04.2019 08:00 UTC Zobrazit data
Místo: Šerák
Teplota: 1 °C (pocitová: -8.3 °C)
Vítr: 6 m/s z(e) 80°
Počasí: oblačno
Dohlednost: 30 km
Zákl. oblačnosti: 3/8 60 m
Vlhkost: 93%
Svratouch (Svratouch) 22.04.2019 08:00 UTC Zobrazit data
Místo: Svratouch
Teplota: 12 °C (pocitová: 8 °C)
Vítr: 4 m/s z(e) 30°
Počasí: slunečno
Dohlednost: 40 km
Zákl. oblačnosti: N/A
Vlhkost: 44%
Temelín (Temelin) 22.04.2019 08:00 UTC Zobrazit data
Místo: Temelín
Teplota: 13 °C (pocitová: 10 °C)
Vítr: 3 m/s z(e) 40°
Počasí: slunečno
Dohlednost: 45 km
Zákl. oblačnosti: N/A
Vlhkost: 47%
Ústí nad Labem - Kočkov (Usti n/L) 22.04.2019 08:00 UTC Zobrazit data
Místo: Ústí nad Labem - Kočkov
Teplota: 16 °C (pocitová: 13.5 °C)
Vítr: 4 m/s z(e) 80°
Počasí: skorojasno
Dohlednost: 60 km
Zákl. oblačnosti: 1/8 7200 m
Vlhkost: 34%
Ústí nad Orlicí (Usti n/O) 22.04.2019 08:00 UTC Zobrazit data
Místo: Ústí nad Orlicí
Teplota: 13 °C (pocitová: 9.4 °C)
Vítr: 4 m/s z(e) 60°
Počasí: slunečno
Dohlednost: 40 km
Zákl. oblačnosti: N/A
Vlhkost: 44%
Aalborg (EKYT) 21.04.2019 13:50 UTC Zobrazit METAR
EKYT 211350Z AUTO 33005KT 300V020 9999 FEW230/// 18/01 Q1023
Aarhus (EKAH) 22.04.2019 06:50 UTC Zobrazit METAR
EKAH 220650Z 12005KT 090V160 CAVOK 12/05 Q1021
Abu Dhabi (OMAA) 22.04.2019 08:00 UTC Zobrazit METAR
OMAA 220800Z 21010KT CAVOK 38/09 Q1007 NOSIG
Abuja (DNAA) 22.04.2019 08:00 UTC Zobrazit METAR
DNAA 220800Z 21007KT 180V250 9999 BKN010 29/22 Q1013 NOSIG
Accra (DGAA) 22.04.2019 08:00 UTC Zobrazit METAR
DGAA 220800Z 26009KT 240V300 8000 FEW013 28/26 Q1011 NOSIG
Addis Abeba (HAAB) 22.04.2019 08:00 UTC Zobrazit METAR
HAAB 220800Z 19004KT 9999 BKN025 20/13 Q1026
Agana (PGUM) 22.04.2019 07:54 UTC Zobrazit METAR
PGUM 220754Z 10010G20KT 10SM FEW021 28/23 A2988 RMK AO2 SLP109 T02830228
Ahe Island (NTHE) Zatím nenačteno  
Akureyri (BIAR) 22.04.2019 08:00 UTC Zobrazit METAR
BIAR 220800Z 31007KT 9999 -RA SCT009 BKN034 02/01 Q1004
Almaty (UAAA) Zatím nenačteno  
Amman (OJAM) 22.04.2019 06:00 UTC Zobrazit METAR
OJAM 220600Z 26009KT 4000 -RA SCT020 SCT025 08/05 Q1016 NOSIG
Amsterdam (EHAM) 22.04.2019 07:55 UTC Zobrazit METAR
EHAM 220755Z 11007KT 070V150 CAVOK 17/06 Q1010 NOSIG
Antananarivo (FMMI) 22.04.2019 08:00 UTC Zobrazit METAR
FMMI 220800Z 15006KT 090V220 9999 FEW020 26/16 Q1018 NOSIG
1 2 3 ... 9 Další
Reklama

Počasí na Váš email

Emaily jsou bez reklamy a bez spamu



Odhlásit newsletter

Reklama


Lunární kalendář

  • 27.04.
  • 05.05.
  • 12.05.
  • 18.05.



Reklama


Reklama
Povinné ručení
Reklama



Reklama